Time;durP1;ratioP1;P1;durP2;ratioP2;P2;SDS_P1;SDS_P2;PMS_P1;PMS_P2;Temp;Humidity;BMP_temperature;BMP_pressure;BME280_temperature;BME280_humidity;BME280_pressure;Samples;Min_cycle;Max_cycle;Signal;HPM_P1;HPM_P2
2023/02/12 00:01:43;;;;;;;5.17;1.90;;;;;;;;;;5061432;28;20505;-83
2023/02/12 00:04:09;;;;;;;7.10;1.97;;;;;;;;;;5025035;28;20457;-82
2023/02/12 00:06:35;;;;;;;7.43;2.83;;;;;;;;;;5080679;28;20424;-82
2023/02/12 00:09:01;;;;;;;3.77;2.30;;;;;;;;;;5063575;28;20507;-87
2023/02/12 00:11:28;;;;;;;9.03;2.97;;;;;;;;;;5065094;28;20456;-82
2023/02/12 00:13:55;;;;;;;13.47;3.03;;;;;;;;;;5080657;28;20409;-85
2023/02/12 00:16:23;;;;;;;5.63;1.70;;;;;;;;;;5062924;28;20509;-87
2023/02/12 00:18:52;;;;;;;4.73;2.33;;;;;;;;;;5064660;28;20770;-82
2023/02/12 00:21:19;;;;;;;8.63;1.77;;;;;;;;;;5080891;28;20561;-85
2023/02/12 00:23:48;;;;;;;5.33;1.93;;;;;;;;;;5063923;28;20418;-82
2023/02/12 00:26:15;;;;;;;4.07;2.40;;;;;;;;;;5064175;28;20968;-85
2023/02/12 00:28:44;;;;;;;5.23;1.50;;;;;;;;;;5088018;28;20411;-82
2023/02/12 00:31:11;;;;;;;4.77;1.30;;;;;;;;;;5074036;28;20416;-87
2023/02/12 00:33:40;;;;;;;2.90;1.10;;;;;;;;;;5057800;28;20417;-85
2023/02/12 00:36:07;;;;;;;4.90;1.33;;;;;;;;;;5075583;28;20417;-81
2023/02/12 00:38:33;;;;;;;3.53;1.83;;;;;;;;;;5074174;28;20460;-86
2023/02/12 00:41:02;;;;;;;4.90;1.27;;;7.20;99.90;;;;;;5073902;28;21009;-81
2023/02/12 00:43:29;;;;;;;3.57;1.87;;;7.10;99.90;;;;;;5074279;28;20427;-82
2023/02/12 00:45:57;;;;;;;4.43;1.40;;;;;;;;;;5073862;28;20482;-82
2023/02/12 00:48:23;;;;;;;3.30;1.60;;;;;;;;;;5074465;28;20442;-81
2023/02/12 00:50:49;;;;;;;3.00;1.10;;;;;;;;;;5073817;28;20460;-81
2023/02/12 00:53:16;;;;;;;4.20;1.30;;;;;;;;;;5074274;28;20737;-83
2023/02/12 00:55:42;;;;;;;5.10;1.07;;;;;;;;;;5057520;28;20417;-89
2023/02/12 00:58:08;;;;;;;4.33;1.40;;;;;;;;;;5073631;28;20492;-87
2023/02/12 01:00:35;;;;;;;5.67;0.83;;;;;;;;;;5073655;28;20977;-83
2023/02/12 01:03:02;;;;;;;2.73;1.17;;;;;;;;;;5075019;28;20462;-82
2023/02/12 01:05:29;;;;;;;3.50;1.13;;;;;;;;;;5073803;28;20522;-88
2023/02/12 01:07:55;;;;;;;4.33;1.30;;;;;;;;;;5032921;28;20434;-83
2023/02/12 01:10:21;;;;;;;3.60;1.20;;;;;;;;;;5073518;28;20938;-86
2023/02/12 01:12:49;;;;;;;4.60;2.30;;;;;;;;;;5074601;28;20417;-86
2023/02/12 01:15:16;;;;;;;3.00;1.60;;;;;;;;;;5074305;28;20421;-82
2023/02/12 01:17:42;;;;;;;3.10;1.50;;;;;;;;;;5075168;28;20406;-88
2023/02/12 01:20:08;;;;;;;7.20;2.23;;;;;;;;;;5074777;28;20472;-85
2023/02/12 01:22:35;;;;;;;3.97;1.60;;;;;;;;;;5074768;28;20411;-82
2023/02/12 01:25:00;;;;;;;2.80;0.97;;;;;;;;;;5074462;28;20456;-90
2023/02/12 01:27:26;;;;;;;4.70;1.90;;;;;;;;;;5074842;28;20512;-84
2023/02/12 01:29:54;;;;;;;3.07;1.43;;;;;;;;;;5074483;28;20429;-88
2023/02/12 01:32:23;;;;;;;4.87;0.93;;;;;;;;;;5074623;28;20418;-88
2023/02/12 01:34:49;;;;;;;4.03;1.40;;;;;;;;;;5073871;28;20426;-82
2023/02/12 01:37:15;;;;;;;4.30;1.30;;;;;;;;;;5073667;28;20419;-91
2023/02/12 01:39:42;;;;;;;4.23;1.40;;;;;;;;;;5074343;28;20458;-91
2023/02/12 01:42:12;;;;;;;5.93;3.00;;;;;;;;;;5088055;28;20435;-83
2023/02/12 01:45:03;;;;;;;7.30;2.00;;;;;;;;;;5074547;28;20422;-86
2023/02/12 01:47:30;;;;;;;4.87;2.30;;;;;;;;;;5073252;28;20433;-84
2023/02/12 01:49:58;;;;;;;6.20;2.73;;;;;;;;;;5073056;28;20471;-88
2023/02/12 01:52:33;;;;;;;6.67;2.40;;;;;;;;;;5073991;28;20430;-89
2023/02/12 01:55:02;;;;;;;6.60;3.53;;;;;;;;;;5073398;28;20465;-87
2023/02/12 01:57:29;;;;;;;9.67;4.23;;;;;;;;;;5089897;28;20405;-84
2023/02/12 02:00:01;;;;;;;4.10;1.93;;;;;;;;;;5072744;28;20823;-87
2023/02/12 02:02:28;;;;;;;5.30;1.97;;;;;;;;;;5074407;28;20426;-93
2023/02/12 02:04:57;;;;;;;6.13;2.07;;;;;;;;;;5074540;28;20431;-92
2023/02/12 02:07:23;;;;;;;4.67;1.90;;;;;;;;;;5074764;28;20421;-93
2023/02/12 02:09:52;;;;;;;6.17;1.93;;;;;;;;;;5074609;28;20417;-89
2023/02/12 02:15:03;;;;;;;6.23;2.10;;;;;;;;;;5075912;28;20465;-92
2023/02/12 02:17:32;;;;;;;4.97;2.17;;;;;;;;;;5059655;28;20464;-81
2023/02/12 02:20:08;;;;;;;7.50;2.67;;;;;;;;;;5062844;28;20491;-82
2023/02/12 02:22:43;;;;;;;4.87;2.10;;;;;;;;;;5064177;28;20409;-85
2023/02/12 02:25:32;;;;;;;6.63;2.67;;;;;;;;;;5065169;28;20424;-88
2023/02/12 02:28:20;;;;;;;7.93;3.30;;;;;;;;;;5064561;28;20942;-88
2023/02/12 02:31:07;;;;;;;6.57;3.47;;;;;;;;;;5063895;28;20898;-83
2023/02/12 02:33:39;;;;;;;5.90;3.13;;;;;;;;;;5067884;28;20410;-80
2023/02/12 02:36:27;;;;;;;8.03;3.97;;;;;;;;;;5078001;28;20766;-81
2023/02/12 02:39:01;;;;;;;7.70;2.93;;;;;;;;;;5036937;28;20513;-88
2023/02/12 02:41:36;;;;;;;10.00;4.30;;;;;;;;;;5056532;28;20919;-90
2023/02/12 02:44:06;;;;;;;7.97;3.63;;;;;;;;;;5064946;28;20510;-82
2023/02/12 02:46:34;;;;;;;9.97;4.73;;;;;;;;;;5060456;28;20430;-82
2023/02/12 02:49:02;;;;;;;8.40;3.90;;;;;;;;;;5086132;28;20425;-89
2023/02/12 02:51:30;;;;;;;5.93;2.80;;;;;;;;;;5063853;28;20416;-90
2023/02/12 02:54:08;;;;;;;7.47;2.93;;;;;;;;;;5074935;28;20415;-88
2023/02/12 02:56:36;;;;;;;8.33;3.83;;;;;;;;;;5057741;28;20405;-87
2023/02/12 02:59:07;;;;;;;10.10;3.40;;;;;;;;;;5061815;28;20501;-90
2023/02/12 03:01:39;;;;;;;8.97;3.43;;;;;;;;;;5073469;28;20559;-82
2023/02/12 03:04:07;;;;;;;10.30;4.10;;;;;;;;;;5056828;28;20930;-91
2023/02/12 03:06:51;;;;;;;8.90;3.63;;;;;;;;;;5067761;28;20434;-90
2023/02/12 03:09:20;;;;;;;6.00;3.00;;;;;;;;;;5078215;28;20496;-87
2023/02/12 03:11:46;;;;;;;9.53;4.13;;;;;;;;;;5057350;28;20899;-91
2023/02/12 03:14:21;;;;;;;8.43;3.77;;;;;;;;;;5060957;28;20913;-90
2023/02/12 03:16:52;;;;;;;8.23;2.80;;;;;;;;;;5069917;28;20434;-89
2023/02/12 03:19:21;;;;;;;10.87;4.73;;;;;;;;;;5060040;28;20905;-90
2023/02/12 03:22:00;;;;;;;12.03;5.43;;;;;;;;;;5081902;28;20441;-84
2023/02/12 03:24:35;;;;;;;12.13;4.20;;;;;;;;;;5084575;28;20509;-84
2023/02/12 03:27:07;;;;;;;11.10;5.37;;;;;;;;;;5056930;28;20459;-84
2023/02/12 03:29:33;;;;;;;8.57;4.10;;;;;;;;;;5058838;28;20417;-82
2023/02/12 03:32:20;;;;;;;9.60;4.37;;;;;;;;;;5066337;28;20406;-84
2023/02/12 03:35:06;;;;;;;8.63;3.30;;;;;;;;;;5061756;28;20503;-82
2023/02/12 03:37:38;;;;;;;9.30;4.03;;;;;;;;;;5063062;28;20414;-91
2023/02/12 03:40:11;;;;;;;7.20;3.67;;;;;;;;;;5063252;28;20459;-91
2023/02/12 03:42:41;;;;;;;8.90;4.63;;;;;;;;;;5063847;28;20429;-89
2023/02/12 03:45:19;;;;;;;9.10;5.07;;;;;;;;;;5080418;28;20412;-90
2023/02/12 03:47:51;;;;;;;8.67;3.97;;;;;;;;;;5069040;28;20433;-89
2023/02/12 03:50:23;;;;;;;8.87;4.33;;;;;;;;;;5065574;28;20419;-92
2023/02/12 03:52:50;;;;;;;7.00;3.73;;;;;;;;;;5057172;28;20408;-92
2023/02/12 03:55:16;;;;;;;6.83;3.03;;;;;;;;;;5057640;28;20411;-84
2023/02/12 03:57:44;;;;;;;6.83;3.30;;;;;;;;;;5056109;28;20522;-84
2023/02/12 04:00:14;;;;;;;7.27;2.30;;;;;;;;;;5050382;28;20465;-81
2023/02/12 04:02:41;;;;;;;8.40;2.53;;;;;;;;;;5058434;28;20493;-86
2023/02/12 04:05:09;;;;;;;10.13;3.03;;;;;;;;;;5075736;28;20434;-81
2023/02/12 04:07:36;;;;;;;6.90;2.10;;;;;;;;;;5075053;28;20482;-87
2023/02/12 04:10:05;;;;;;;5.73;2.20;;;;;;;;;;5076549;28;20821;-81
2023/02/12 04:12:40;;;;;;;3.47;2.03;;;;;;;;;;5075433;28;20452;-81
2023/02/12 04:15:25;;;;;;;3.30;1.43;;;;;;;;;;5074866;28;20512;-89
2023/02/12 04:17:58;;;;;;;5.00;1.50;;;;;;;;;;5075154;28;20752;-81
2023/02/12 04:20:28;;;;;;;4.43;1.67;;;;;;;;;;5075018;28;20876;-81
2023/02/12 04:23:18;;;;;;;4.80;1.70;;;;;;;;;;5075416;28;20458;-90
2023/02/12 04:25:57;;;;;;;5.40;1.60;;;;;;;;;;5076803;28;20475;-89
2023/02/12 04:28:42;;;;;;;6.10;2.10;;;;;;;;;;5076584;28;20425;-91
2023/02/12 04:31:17;;;;;;;4.63;2.10;;;;;;;;;;5076499;28;20981;-90
2023/02/12 04:33:47;;;;;;;6.20;1.90;;;;;;;;;;5075631;28;20457;-89
2023/02/12 04:36:17;;;;;;;6.70;2.23;;;;;;;;;;5059001;28;20419;-84
2023/02/12 04:38:52;;;;;;;4.00;1.57;;;;;;;;;;5074895;28;20465;-91
2023/02/12 04:41:18;;;;;;;4.90;1.47;;;;;;;;;;5075012;28;20477;-87
2023/02/12 04:43:44;;;;;;;12.60;2.70;;;;;;;;;;5075041;28;20423;-90
2023/02/12 04:46:10;;;;;;;8.90;2.80;;;;;;;;;;5058251;28;20428;-90
2023/02/12 04:48:52;;;;;;;7.40;1.93;;;;;;;;;;5078043;28;20413;-90
2023/02/12 04:51:18;;;;;;;8.77;3.57;;;;;;;;;;5075370;28;20404;-89
2023/02/12 04:53:44;;;;;;;7.27;3.27;;;;;;;;;;5075742;28;20430;-82
2023/02/12 04:56:13;;;;;;;7.43;3.97;;;;;;;;;;5076034;28;20411;-91
2023/02/12 04:58:39;;;;;;;10.47;4.50;;;;;;;;;;5075131;28;20420;-93
2023/02/12 05:01:05;;;;;;;8.27;2.97;;;;;;;;;;5076098;28;20827;-93
2023/02/12 05:03:31;;;;;;;13.70;5.37;;;;;;;;;;5074776;28;20468;-88
2023/02/12 05:06:01;;;;;;;12.40;5.33;;;;;;;;;;5074801;28;20517;-88
2023/02/12 05:08:27;;;;;;;12.30;5.90;;;;;;;;;;5074831;28;20414;-85
2023/02/12 05:10:53;;;;;;;14.00;5.40;;;;;;;;;;5074221;28;21006;-83
2023/02/12 05:13:22;;;;;;;18.03;7.23;;;;;;;;;;5074093;28;20436;-88
2023/02/12 05:15:48;;;;;;;14.10;5.63;;;;;;;;;;5073320;28;20430;-81
2023/02/12 05:18:14;;;;;;;21.40;5.73;;;;;;;;;;5075253;28;20563;-87
2023/02/12 05:20:40;;;;;;;19.87;7.60;;;;;;;;;;5075012;28;20519;-88
2023/02/12 05:23:05;;;;;;;19.53;6.67;;;;;;;;;;5073817;28;20491;-86
2023/02/12 05:25:31;;;;;;;20.00;7.20;;;;;;;;;;5073754;28;20429;-88
2023/02/12 05:27:57;;;;;;;22.37;6.17;;;;;;;;;;5074911;28;20415;-83
2023/02/12 05:30:23;;;;;;;20.00;7.00;;;;;;;;;;5074463;28;20460;-86
2023/02/12 05:32:49;;;;;;;23.80;6.50;;;;;;;;;;5073324;28;20522;-87
2023/02/12 05:35:15;;;;;;;16.43;6.40;;;;;;;;;;5074717;28;20828;-88
2023/02/12 05:37:43;;;;;;;30.73;7.00;;;;;;;;;;5074553;28;20492;-83
2023/02/12 05:40:09;;;;;;;20.57;7.60;;;;;;;;;;5073260;28;20481;-90
2023/02/12 05:42:35;;;;;;;20.43;6.73;;;;;;;;;;5073629;28;20419;-86
2023/02/12 05:45:01;;;;;;;29.67;7.10;;;;;;;;;;5067783;28;20417;-90
2023/02/12 05:47:27;;;;;;;22.83;6.70;;;;;;;;;;5040315;28;20510;-87
2023/02/12 05:49:53;;;;;;;29.57;7.03;;;;;;;;;;5073853;28;20415;-90
2023/02/12 05:52:19;;;;;;;22.03;7.40;;;;;;;;;;5074467;28;20920;-83
2023/02/12 05:54:48;;;;;;;19.80;6.23;;;;;;;;;;5074527;28;20419;-82
2023/02/12 05:57:14;;;;;;;24.20;7.30;;;;;;;;;;5074732;28;20407;-93
2023/02/12 05:59:40;;;;;;;20.03;7.03;;;;;;;;;;5074002;28;20965;-88
2023/02/12 06:02:06;;;;;;;19.03;5.17;;;;;;;;;;5073476;28;20422;-89
2023/02/12 06:04:32;;;;;;;28.90;6.43;;;;;;;;;;5074720;28;20227;-93
2023/02/12 06:06:59;;;;;;;12.47;5.00;;;;;;;;;;5074621;28;20420;-83
2023/02/12 06:09:25;;;;;;;23.00;5.90;;;;;;;;;;5073263;28;20435;-82
2023/02/12 06:11:51;;;;;;;25.03;6.00;;;;;;;;;;5073530;28;20894;-83
2023/02/12 06:14:21;;;;;;;17.60;4.83;;;;;;;;;;5073417;28;20485;-83
2023/02/12 06:16:48;;;;;;;17.03;5.70;;;;;;;;;;5077608;28;20490;-81
2023/02/12 06:19:14;;;;;;;12.10;3.87;;;;;;;;;;5076520;28;20493;-85
2023/02/12 06:21:40;;;;;;;15.53;4.50;;;;;;;;;;5074600;28;20950;-91
2023/02/12 06:24:06;;;;;;;17.73;5.87;;;;;;;;;;5075198;28;20408;-83
2023/02/12 06:26:32;;;;;;;19.50;5.53;;;;;;;;;;5073092;28;20942;-85
2023/02/12 06:29:07;;;;;;;19.60;5.57;;;;;;;;;;5073008;28;20411;-90
2023/02/12 06:31:34;;;;;;;9.40;3.37;;;;;;;;;;5073412;28;20507;-81
2023/02/12 06:34:12;;;;;;;11.70;3.30;;;;;;;;;;5073302;28;20472;-90
2023/02/12 06:36:43;;;;;;;25.50;4.77;;;;;;;;;;5074641;28;20396;-91
2023/02/12 06:39:14;;;;;;;16.60;4.90;;;;;;;;;;5074854;28;20732;-93
2023/02/12 06:41:40;;;;;;;14.73;3.93;;;;;;;;;;5073169;28;20475;-92
2023/02/12 06:44:07;;;;;;;10.00;3.30;;;;;;;;;;5072960;28;20443;-91
2023/02/12 06:46:33;;;;;;;12.33;4.60;;;;;;;;;;5073185;28;20418;-93
2023/02/12 06:49:00;;;;;;;17.47;4.07;;;;;;;;;;5073391;28;20426;-92
2023/02/12 06:51:27;;;;;;;12.10;4.40;;;;;;;;;;5073193;28;20418;-92
2023/02/12 06:53:54;;;;;;;13.80;2.53;;;;;;;;;;5074331;28;20407;-93
2023/02/12 06:56:21;;;;;;;19.63;3.90;;;;;;;;;;5072728;28;20422;-88
2023/02/12 06:58:48;;;;;;;9.50;2.70;;;;;;;;;;5073663;28;20417;-83
2023/02/12 07:01:17;;;;;;;9.53;3.70;;;;;;;;;;5073078;28;20477;-82
2023/02/12 07:03:47;;;;;;;18.13;5.70;;;;;;;;;;5029918;28;20468;-85
2023/02/12 07:06:13;;;;;;;9.90;3.93;;;;;;;;;;5073431;28;20445;-85
2023/02/12 07:08:39;;;;;;;18.00;3.73;;;;;;;;;;5073469;28;20927;-81
2023/02/12 07:11:05;;;;;;;15.73;3.70;;;;;;;;;;5073918;28;20417;-82
2023/02/12 07:13:33;;;;;;;15.93;2.53;;;;;;;;;;5076715;28;20426;-89
2023/02/12 07:16:02;;;;;;;24.77;4.47;;;;;;;;;;5077370;28;20843;-89
2023/02/12 07:18:28;;;;;;;22.40;3.33;;;;;;;;;;5076401;28;20433;-86
2023/02/12 07:20:55;;;;;;;13.43;2.70;;;;;;;;;;5076172;28;20470;-85
2023/02/12 07:23:21;;;;;;;11.80;4.47;;;;;;;;;;5076071;28;20414;-88
2023/02/12 07:25:54;;;;;;;17.03;5.10;;;;;;;;;;5077185;28;20770;-83
2023/02/12 07:28:23;;;;;;;13.83;3.80;;;;;;;;;;5075771;28;20803;-83
2023/02/12 07:30:49;;;;;;;10.30;3.97;;;;;;;;;;5075349;28;20411;-84
2023/02/12 07:33:15;;;;;;;16.27;3.97;;;;;;;;;;5075801;28;20471;-88
2023/02/12 07:35:41;;;;;;;11.30;2.73;;;;;;;;;;5075784;28;20898;-87
2023/02/12 07:38:17;;;;;;;13.77;3.73;;;;;;;;;;5075670;28;20449;-88
2023/02/12 07:40:43;;;;;;;12.47;3.80;;;;;;;;;;5076731;28;20481;-87
2023/02/12 07:43:09;;;;;;;9.47;2.70;;;;;;;;;;5092179;28;20418;-87
2023/02/12 07:45:35;;;;;;;11.70;3.30;;;;;;;;;;5096064;28;20446;-82
2023/02/12 07:48:01;;;;;;;14.53;3.50;;;;;;;;;;5075384;28;20527;-84
2023/02/12 07:50:27;;;;;;;19.03;4.60;;;;;;;;;;5075306;28;20422;-84
2023/02/12 07:52:53;;;;;;;18.73;4.80;;;;;;;;;;5075546;28;20488;-82
2023/02/12 07:55:19;;;;;;;13.27;4.40;;;;;;;;;;5075483;28;20423;-89
2023/02/12 07:57:46;;;;;;;16.80;4.80;;;;;;;;;;5075408;28;20435;-83
2023/02/12 08:00:12;;;;;;;21.40;3.93;;;;;;;;;;5075049;28;20822;-90
2023/02/12 08:02:39;;;;;;;10.83;3.07;;;;;;;;;;5076619;28;20411;-88
2023/02/12 08:05:11;;;;;;;16.10;2.90;;;;;;;;;;5075348;28;20432;-90
2023/02/12 08:07:37;;;;;;;13.17;3.50;;;;;;;;;;5076875;28;20501;-82
2023/02/12 08:10:03;;;;;;;15.10;4.03;;;;;;;;;;5033214;28;20522;-88
2023/02/12 08:12:29;;;;;;;14.63;4.53;;;;;;;;;;5076273;28;20406;-88
2023/02/12 08:14:55;;;;;;;13.50;5.43;;;;;;;;;;5074722;28;20460;-81
2023/02/12 08:17:21;;;;;;;20.00;6.17;;;;;;;;;;5076018;28;20409;-85
2023/02/12 08:19:47;;;;;;;14.60;3.83;;;;;;;;;;5074730;28;20423;-84
2023/02/12 08:22:12;;;;;;;18.63;5.50;;;;;;;;;;5075426;28;20467;-81
2023/02/12 08:24:42;;;;;;;14.20;5.40;;;;;;;;;;5074758;28;20452;-87
2023/02/12 08:27:08;;;;;;;11.17;4.17;;;;;;;;;;5075921;28;20426;-88
2023/02/12 08:29:33;;;;;;;25.13;5.60;;;;;;;;;;5074282;28;20412;-85
2023/02/12 08:32:00;;;;;;;21.03;6.03;;;;;;;;;;5077112;28;20424;-93
2023/02/12 08:34:27;;;;;;;16.23;5.57;;;;;;;;;;5080640;28;20488;-90
2023/02/12 08:36:55;;;;;;;21.23;6.80;;;;;;;;;;5080625;28;20494;-83
2023/02/12 08:39:21;;;;;;;16.47;6.40;;;;;;;;;;5080515;28;20923;-81
2023/02/12 08:41:47;;;;;;;16.93;5.77;;;;;;;;;;5081469;28;20462;-89
2023/02/12 08:44:16;;;;;;;17.63;6.17;;;;;;;;;;5079066;28;20422;-82
2023/02/12 08:46:45;;;;;;;20.53;6.30;;;;;;;;;;5078614;28;20422;-89
2023/02/12 08:49:13;;;;;;;17.80;7.10;;;;;;;;;;5079359;28;20387;-87
2023/02/12 08:51:40;;;;;;;20.37;7.43;;;;;;;;;;5076000;28;20530;-82
2023/02/12 08:54:07;;;;;;;21.57;8.23;;;;;;;;;;5076856;28;20404;-81
2023/02/12 08:56:36;;;;;;;18.63;7.33;;;;;;;;;;5077980;28;20403;-82
2023/02/12 08:59:03;;;;;;;16.80;6.83;;;;;;;;;;5076167;28;20486;-84
2023/02/12 09:01:32;;;;;;;19.13;5.53;;;;;;;;;;5071242;28;21062;-85
2023/02/12 09:03:58;;;;;;;16.63;6.80;;;;;;;;;;5075605;28;20467;-81
2023/02/12 09:06:24;;;;;;;18.20;6.70;;;;;;;;;;5075431;28;20756;-91
2023/02/12 09:08:51;;;;;;;23.87;7.13;;;;;;;;;;5075495;28;20480;-88
2023/02/12 09:11:18;;;;;;;18.73;6.17;;;;;;;;;;5077731;28;20442;-95
2023/02/12 09:13:45;;;;;;;19.37;6.50;;;;;;;;;;5081422;28;20415;-82
2023/02/12 09:16:11;;;;;;;18.67;7.27;;;;;;;;;;5080084;28;20422;-87
2023/02/12 09:18:37;;;;;;;14.13;6.60;;;;;;;;;;5079836;28;20409;-88
2023/02/12 09:21:08;;;;;;;12.60;5.97;;;;;;;;;;5079958;28;20836;-92
2023/02/12 09:23:34;;;;;;;17.20;8.07;;;;;;;;;;5076698;28;20416;-84
2023/02/12 09:26:03;;;;;;;14.10;5.83;;;;;;;;;;5073931;28;20810;-88
2023/02/12 09:28:29;;;;;;;16.13;5.50;;;;;;;;;;5058456;28;20823;-81
2023/02/12 09:30:55;;;;;;;14.87;5.70;;;;;;;;;;5058862;28;20416;-92
2023/02/12 09:33:21;;;;;;;14.90;5.20;;;;;;;;;;5074083;28;20408;-92
2023/02/12 09:35:50;;;;;;;13.50;5.93;;;;;;;;;;5074489;28;20420;-90
2023/02/12 09:38:16;;;;;;;15.87;5.70;;;;;;;;;;5074464;28;20537;-91
2023/02/12 09:41:01;;;;;;;13.97;5.90;;;;;;;;;;5074404;28;20978;-93
2023/02/12 09:43:36;;;;;;;15.20;6.30;;;;;;;;;;5075523;28;20427;-91
2023/02/12 09:46:08;;;;;;;12.00;6.80;;;;;;;;;;5075846;28;20452;-94
2023/02/12 09:48:46;;;;;;;15.33;6.40;;;;;;;;;;5074912;28;20419;-93
2023/02/12 09:51:12;;;;;;;21.10;7.97;;;;;;;;;;5074579;28;20406;-93
2023/02/12 09:53:40;;;;;;;17.67;7.30;;;;;;;;;;5075567;28;20409;-92
2023/02/12 09:56:11;;;;;;;20.07;8.43;;;;;;;;;;5075408;28;20440;-93
2023/02/12 09:58:51;;;;;;;15.13;6.90;;;;;;;;;;5075770;28;20455;-89
2023/02/12 10:01:18;;;;;;;14.90;7.30;;;;;;;;;;5075832;28;20472;-94
2023/02/12 10:03:44;;;;;;;12.93;6.53;;;;;;;;;;5075076;28;20471;-94
2023/02/12 10:06:15;;;;;;;13.70;6.07;;;;;;;;;;5075583;28;20412;-95
2023/02/12 10:09:00;;;;;;;11.07;6.70;;;;;;;;;;5075629;28;20395;-94
2023/02/12 10:11:44;;;;;;;12.90;6.70;;;;;;;;;;5075202;28;20405;-91
2023/02/12 10:14:29;;;;;;;12.60;5.97;;;;;;;;;;5066312;28;20421;-84
2023/02/12 10:17:13;;;;;;;15.70;7.40;;;;;;;;;;5053715;28;20434;-83
2023/02/12 10:20:00;;;;;;;11.63;6.93;;;;;;;;;;5053572;28;20449;-84
2023/02/12 10:22:37;;;;;;;13.10;6.57;;;;;;;;;;5056625;28;20409;-92
2023/02/12 10:25:09;;;;;;;9.90;5.07;;;;;;;;;;5073146;28;20808;-82
2023/02/12 10:27:35;;;;;;;11.57;5.87;;;;;;;;;;5073661;28;20418;-92
2023/02/12 10:30:03;;;;;;;10.80;5.83;;;;;;;;;;5074585;28;20410;-91
2023/02/12 10:32:31;;;;;;;10.87;5.23;;;;;;;;;;5074269;28;20449;-92
2023/02/12 10:34:58;;;;;;;10.57;5.83;;;;;;;;;;5073945;28;20980;-88
2023/02/12 10:37:31;;;;;;;8.90;4.73;;;;;;;;;;5074041;28;20416;-88
2023/02/12 10:40:15;;;;;;;7.57;5.00;;;;;;;;;;5073318;28;20823;-88
2023/02/12 10:42:42;;;;;;;8.40;4.20;;;;;;;;;;5034775;28;20509;-87
2023/02/12 10:45:19;;;;;;;6.50;3.13;;;;;;;;;;5073593;28;20414;-91
2023/02/12 10:47:46;;;;;;;8.60;2.93;;;;;;;;;;5072742;28;20426;-87
2023/02/12 10:50:28;;;;;;;8.20;3.83;;;;;;;;;;5073983;28;20417;-82
2023/02/12 10:52:56;;;;;;;11.20;4.67;;;;;;;;;;5074154;28;20443;-90
2023/02/12 10:55:26;;;;;;;7.03;4.13;;;;;;;;;;5074350;28;20422;-89
2023/02/12 10:57:52;;;;;;;8.03;4.70;;;;;;;;;;5073409;28;20406;-92
2023/02/12 11:00:26;;;;;;;8.57;4.00;;;;;;;;;;5072760;28;20539;-90
2023/02/12 11:03:19;;;;;;;9.43;4.00;;;;;;;;;;5070319;28;20476;-91
2023/02/12 11:05:45;;;;;;;5.73;2.57;;;;;;;;;;5069736;28;20449;-89
2023/02/12 11:08:31;;;;;;;5.10;2.33;;;;;;;;;;5073512;28;20819;-84
2023/02/12 11:11:05;;;;;;;5.20;2.43;;;;;;;;;;5073198;28;20416;-90
2023/02/12 11:13:31;;;;;;;6.03;2.97;;;;;;;;;;5074015;28;20451;-80
2023/02/12 11:15:57;;;;;;;8.27;3.17;;;;;;;;;;5074604;28;20409;-81
2023/02/12 11:18:25;;;;;;;5.17;2.47;;;;;;;;;;5072931;28;20413;-91
2023/02/12 11:20:52;;;;;;;5.90;2.67;;;;;;;;;;5072678;28;20831;-90
2023/02/12 11:23:26;;;;;;;6.83;3.13;;;;;;;;;;5072626;28;20417;-89
2023/02/12 11:26:12;;;;;;;7.90;4.00;;;;;;;;;;5072992;28;20454;-88
2023/02/12 11:28:38;;;;;;;4.37;1.87;;;;;;;;;;5058970;28;20498;-90
2023/02/12 11:31:13;;;;;;;5.63;2.70;;;;;;;;;;5073220;28;20844;-91
2023/02/12 11:33:39;;;;;;;6.50;3.10;;;;;;;;;;5073048;28;20522;-91
2023/02/12 11:36:13;;;;;;;9.50;3.10;;;;;;;;;;5072771;28;20434;-93
2023/02/12 11:38:47;;;;;;;8.97;3.90;;;;;;;;;;5072735;28;20913;-91
2023/02/12 11:41:40;;;;;;;5.60;2.40;;;;;;;;;;5073981;28;20526;-88
2023/02/12 11:44:14;;;;;;;5.40;2.30;;;;;;;;;;5033685;28;20424;-92
2023/02/12 11:46:46;;;;;;;7.03;2.63;;;;;;;;;;5072575;28;20429;-91
2023/02/12 11:49:17;;;;;;;9.37;3.03;;;;;;;;;;5073646;28;20450;-90
2023/02/12 11:51:46;;;;;;;6.60;3.40;;;;;;;;;;5070168;28;20452;-88
2023/02/12 11:54:17;;;;;;;6.40;2.83;;;;;;;;;;5073309;28;20765;-88
2023/02/12 11:56:47;;;;;;;8.20;3.67;;;;;;;;;;5069837;28;20961;-83
2023/02/12 11:59:21;;;;;;;7.03;3.70;;;;;;;;;;5074457;28;20411;-86
2023/02/12 12:01:48;;;;;;;6.50;2.90;;;;;;;;;;5077045;28;20465;-92
2023/02/12 12:04:15;;;;;;;9.20;3.93;;;;;;;;;;5075726;28;20466;-92
2023/02/12 12:06:53;;;;;;;8.03;3.97;;;;;;;;;;5077123;28;20412;-94
2023/02/12 12:09:40;;;;;;;5.40;2.57;;;;;;;;;;5076320;28;20416;-85
2023/02/12 12:12:10;;;;;;;7.20;3.33;;;;;;;;;;5078277;28;20430;-85
2023/02/12 12:19:51;;;;;;;7.77;3.50;;;;;;;;;;5076260;28;20407;-89
2023/02/12 12:20:16;;;;;;;7.10;3.40;;;;;;;;;;5076537;28;20467;-93
2023/02/12 12:22:42;;;;;;;5.27;2.77;;;;;;;;;;5076607;28;20436;-93
2023/02/12 12:25:08;;;;;;;7.70;3.13;;;;;;;;;;5076584;28;20408;-94
2023/02/12 12:30:28;;;;;;;7.80;3.50;;;;;;;;;;5075834;28;20411;-80
2023/02/12 12:32:57;;;;;;;7.70;3.03;;;;;;;;;;5075773;28;20409;-84
2023/02/12 12:35:27;;;;;;;5.83;2.83;;;;;;;;;;5075597;28;20901;-82
2023/02/12 12:37:57;;;;;;;7.10;4.43;;;;;;;;;;5075633;28;20434;-82
2023/02/12 12:40:42;;;;;;;8.23;4.10;;;;;;;;;;5075957;28;20988;-83
2023/02/12 12:43:13;;;;;;;9.73;3.63;;;;;;;;;;5075535;28;20404;-85
2023/02/12 12:45:57;;;;;;;7.93;4.00;;;;;;;;;;5033522;28;20455;-91
2023/02/12 12:48:30;;;;;;;7.43;3.80;;;;;;;;;;5075261;28;20427;-78
2023/02/12 12:51:08;;;;;;;10.07;4.07;;;;;;;;;;5075738;28;20428;-90
2023/02/12 12:53:40;;;;;;;6.30;3.47;;;;;;;;;;5075360;28;20485;-92
2023/02/12 12:56:09;;;;;;;6.40;2.33;;;;;;;;;;5075836;28;20915;-83
2023/02/12 12:58:39;;;;;;;7.47;4.00;;;;;;;;;;5075951;28;20939;-91
2023/02/12 13:01:11;;;;;;;7.00;2.80;;;;;;;;;;5075268;28;20519;-86
2023/02/12 13:03:48;;;;;;;7.13;3.40;;;;;;;;;;5075732;28;20452;-90
2023/02/12 13:06:14;;;;;;;4.87;2.63;;;;;;;;;;5076253;28;20400;-91
2023/02/12 13:08:40;;;;;;;5.77;3.17;;;;;;;;;;5074059;28;20465;-83
2023/02/12 13:11:13;;;;;;;5.80;2.70;;;;;;;;;;5074461;28;20913;-79
2023/02/12 13:13:41;;;;;;;7.10;2.63;;;;;;;;;;5075459;28;20179;-91
2023/02/12 13:16:16;;;;;;;4.70;2.33;;;;;;;;;;5074917;28;20755;-79
2023/02/12 13:19:01;;;;;;;4.53;2.30;;;;;;;;;;5074718;28;20824;-86
2023/02/12 13:21:46;;;;;;;4.03;2.00;;;;;;;;;;5075242;28;20614;-90
2023/02/12 13:24:28;;;;;;;7.07;3.10;;;;;;;;;;5073521;28;20421;-90
2023/02/12 13:26:56;;;;;;;4.53;2.60;;;;;;;;;;5074179;28;20433;-89
2023/02/12 13:29:36;;;;;;;7.10;2.40;;;;;;;;;;5074563;28;20413;-88
2023/02/12 13:32:15;;;;;;;4.83;1.50;;;;;;;;;;5074537;28;20519;-91
2023/02/12 13:34:41;;;;;;;3.80;1.90;;;;;;;;;;5074729;28;20977;-89
2023/02/12 13:37:12;;;;;;;3.20;1.40;;;;;;;;;;5076162;28;20413;-88
2023/02/12 13:39:39;;;;;;;4.47;1.60;;;;;;;;;;5077119;28;20412;-82
2023/02/12 13:42:24;;;;;;;6.13;2.70;;;;;;;;;;5073483;28;20480;-88
2023/02/12 13:44:50;;;;;;;3.37;1.00;;;;;;;;;;5074306;28;20417;-82
2023/02/12 13:47:30;;;;;;;4.40;1.20;;;;;;;;;;5075430;28;20406;-84
2023/02/12 13:49:59;;;;;;;3.20;2.07;;;;;;;;;;5036197;28;20994;-88
2023/02/12 13:52:37;;;;;;;2.63;1.33;;;;;;;;;;5075215;28;20404;-85
2023/02/12 13:55:09;;;;;;;4.17;2.50;;;;;;;;;;5073870;28;21241;-80
2023/02/12 13:57:35;;;;;;;3.93;1.70;;;;;;;;;;5074823;28;20412;-79
2023/02/12 14:00:07;;;;;;;4.50;1.73;;;;;;;;;;5074034;28;20411;-91
2023/02/12 14:02:32;;;;;;;5.10;2.20;;;;;;;;;;5074219;28;20514;-89
2023/02/12 14:05:04;;;;;;;5.37;1.40;;;;;;;;;;5073820;28;20530;-91
2023/02/12 14:07:44;;;;;;;2.40;1.53;;;;;;;;;;5074018;28;20429;-91
2023/02/12 14:10:22;;;;;;;5.17;2.43;;;;;;;;;;5075079;28;20475;-90
2023/02/12 14:12:48;;;;;;;4.10;2.60;;;;;;;;;;5073293;28;20492;-88
2023/02/12 14:15:27;;;;;;;3.80;2.03;;;;;;;;;;5075140;28;20508;-79
2023/02/12 14:17:55;;;;;;;3.87;1.50;;;;;;;;;;5074509;28;21050;-88
2023/02/12 14:20:25;;;;;;;4.13;0.93;;;;;;;;;;5073960;28;20449;-89
2023/02/12 14:22:51;;;;;;;2.90;1.43;;;;;;;;;;5074745;28;20417;-86
2023/02/12 14:25:23;;;;;;;2.63;1.10;;;;;;;;;;5074847;28;20449;-90
2023/02/12 14:27:55;;;;;;;4.17;1.60;;;;;;;;;;5072566;28;20776;-80
2023/02/12 14:30:24;;;;;;;1.80;0.80;;;;;;;;;;5072699;28;20412;-82
2023/02/12 14:32:54;;;;;;;2.60;0.90;;;;;;;;;;5062847;28;20416;-83
2023/02/12 14:35:26;;;;;;;2.17;0.77;;;;;;;;;;5061823;28;20778;-84
2023/02/12 14:37:53;;;;;;;2.83;0.80;;;;;;;;;;5067787;28;20497;-83
2023/02/12 14:40:30;;;;;;;3.90;1.63;;;;;;;;;;5062947;28;20505;-82
2023/02/12 14:42:56;;;;;;;2.13;0.70;;;;;;;;;;5064691;28;20416;-89
2023/02/12 14:45:35;;;;;;;3.20;1.30;;;;;;;;;;5059469;28;20423;-91
2023/02/12 14:48:03;;;;;;;4.57;0.60;;;;;;;;;;5068093;28;20392;-91
2023/02/12 14:50:31;;;;;;;4.50;1.50;;;;;;;;;;5064150;28;20920;-83
2023/02/12 14:53:00;;;;;;;2.20;0.60;;;;;;;;;;5020041;28;20430;-89
2023/02/12 14:55:28;;;;;;;2.20;0.87;;;;;;;;;;5064023;28;20460;-88
2023/02/12 14:57:57;;;;;;;3.40;0.80;;;;;;;;;;5072506;28;20764;-93
2023/02/12 15:00:34;;;;;;;5.53;2.10;;;;;;;;;;5066729;28;20490;-87
2023/02/12 15:03:13;;;;;;;2.90;1.10;;;;;;;;;;5081008;28;20467;-89
2023/02/12 15:05:48;;;;;;;3.20;1.17;;;;;;;;;;5060973;28;20497;-82